Aviation Digital Data Service (ADDS)

Output produced by METARs form (0154 UTC 26 June 2017)
found at http://aviationweather.gov/adds/metars/
 
KOAJ 252331Z 2600/2624 00000KT P6SM BKN150 
     FM260900 VRB03KT 5SM BR BKN050 
     FM261200 01006KT P6SM BKN050 
     FM261400 03007KT P6SM SCT050 AMD LTD TO CLD VIS AND WIND